Darby, MT

6:28 AM MDT on October 24, 2014 (GMT -0600)
Missoula International | Change Station
CLOSE
Current Station
Airport
Location: Missoula,
Elevation: 3189 ft
Nearby Weather Stations

Elev 3189 ft 46.92 °N, 114.09 °W | Updated 35 minutes ago

Mostly Cloudy
Mostly Cloudy
45 °F
Feels Like 45 °F
N
0
Wind Variable Wind from North

Today
High -- | Low -- °F
--% Chance of Precip.
Yesterday
High -- | Low -- °F
Precip. -- in
8:06 AM 6:35 PM
New Moon, 0% visible
Pressure 30.11 in
Visibility 10.0 miles
Clouds Overcast 4900 ft
Dew Point 42 °F
Humidity 90%
Rainfall 0.00 in
Snow Depth 0 in
UV 0 out of 12
Pollen 1.00 out of 12
Air Quality Not available.
Flu Activity No Activity
METAR KMSO 241153Z 00000KT 10SM OVC049 07/06 A3009 RMK AO2 SLP195 60000 70004 T00720056 10094 20067 51013

More Conditions Fewer Conditions

Pressure 30.11 in
Visibility 10.0 miles
Clouds Overcast 4900 ft
Dew Point 42 °F
Humidity 90%
Rainfall 0.00 in
Snow Depth 0 in
UV 0 out of 12
Pollen 1.00 out of 12
Air Quality Not available.
Flu Activity No Activity
METAR KMSO 241153Z 00000KT 10SM OVC049 07/06 A3009 RMK AO2 SLP195 60000 70004 T00720056 10094 20067 51013

More Conditions Fewer Conditions

10-Day Weather Forecast

Almanac

Astronomy

Oct. 24, 2014 Rise Set
Actual Time 8:06 AM MDT 6:35 PM MDT
Civil Twilight 7:35 AM MDT 7:05 PM MDT
Nautical Twilight 7:00 AM MDT 7:40 PM MDT
Astronomical Twilight 6:25 AM MDT 8:15 PM MDT
Moon 8:51 AM MDT 7:15 PM MDT
Length of Visible Light 11h 30m
Length of Day
10h 28m
Tomorrow will be 3m 1s shorter.
New Moon, 0% of the Moon is Illuminated
Today
New Moon
Oct 30
First Quarter
Nov 6
Full
Nov 14
Last Quarter
Nov 22
New

Today's Extremes

State Highs State Lows

Community

WunderPhotos

Upload Photos

1,764,533 photos uploaded!

Nearby

Snow Depth

Station Depth Elevation
Twelvemile Creek 0 in 5600 ft
Twin Lakes 0 in 6400 ft
Daly Creek 0 in 5780 ft
Nez Perce Camp 0 in 5650 ft
Skalkaho Summit 0 in 7250 ft

Earthquake Activity

City Distance Mag. Time & Date
No recent earthquake activity has been reported nearby.
Minimum magnitude displayed is 2.5.

Coastal Water Temperatures

Place Temperature
No Stations Reporting

Nearby Weather Stations